createdAt,value
2018-04-22T00:02:52.208Z,95793
2018-04-22T00:08:20.412Z,95778
2018-04-22T00:13:48.567Z,95784
2018-04-22T00:19:16.757Z,95769
2018-04-22T00:24:44.911Z,95772
2018-04-22T00:30:13.090Z,95771
2018-04-22T00:35:42.211Z,95771
2018-04-22T00:41:11.141Z,95770
2018-04-22T00:46:40.064Z,95766
2018-04-22T00:52:09.133Z,95776
2018-04-22T00:57:38.039Z,95768
2018-04-22T01:03:06.197Z,95760
2018-04-22T01:08:35.120Z,95754
2018-04-22T01:14:03.277Z,95750
2018-04-22T01:19:31.479Z,95747
2018-04-22T01:25:00.411Z,95749
2018-04-22T01:30:29.376Z,95741
2018-04-22T01:35:57.640Z,95742
2018-04-22T01:41:25.803Z,95741
2018-04-22T01:46:54.720Z,95738
2018-04-22T01:52:23.621Z,95735
2018-04-22T01:57:51.793Z,95732
2018-04-22T02:03:20.717Z,95727
2018-04-22T02:08:48.880Z,95728
2018-04-22T02:14:17.020Z,95727
2018-04-22T02:19:45.186Z,95715
2018-04-22T02:25:14.139Z,95724
2018-04-22T02:30:42.276Z,95717
2018-04-22T02:36:10.564Z,95709
2018-04-22T02:41:39.501Z,95702
2018-04-22T02:47:08.437Z,95715
2018-04-22T02:52:37.356Z,95708
2018-04-22T02:58:05.526Z,95700
2018-04-22T03:03:33.702Z,95701
2018-04-22T03:09:01.898Z,95700
2018-04-22T03:14:30.113Z,95696
2018-04-22T03:19:58.295Z,95702
2018-04-22T03:25:26.464Z,95696
2018-04-22T03:30:54.626Z,95684
2018-04-22T03:36:23.555Z,95685
2018-04-22T03:41:52.489Z,95686
2018-04-22T03:47:21.412Z,95687
2018-04-22T03:52:49.578Z,95679
2018-04-22T03:58:18.507Z,95684
2018-04-22T04:03:46.658Z,95680
2018-04-22T04:09:14.795Z,95684
2018-04-22T04:14:42.950Z,95680
2018-04-22T04:20:29.927Z,95691
2018-04-22T04:32:22.952Z,95685
2018-04-22T04:37:51.103Z,95680
2018-04-22T04:43:20.030Z,95682
2018-04-22T04:48:48.189Z,95688
2018-04-22T04:54:16.361Z,95698
2018-04-22T04:59:44.463Z,95697
2018-04-22T05:05:12.616Z,95690
2018-04-22T05:10:41.630Z,95700
2018-04-22T05:16:09.804Z,95696
2018-04-22T05:21:37.965Z,95706
2018-04-22T05:27:06.315Z,95705
2018-04-22T05:32:35.219Z,95702
2018-04-22T05:38:03.370Z,95707
2018-04-22T05:43:31.518Z,95722
2018-04-22T05:48:59.713Z,95707
2018-04-22T05:54:28.659Z,95718
2018-04-22T05:59:57.567Z,95708
2018-04-22T06:05:25.706Z,95718
2018-04-22T06:10:54.692Z,95716
2018-04-22T06:16:24.842Z,95716
2018-04-22T06:21:52.994Z,95722
2018-04-22T06:27:21.135Z,95716
2018-04-22T06:32:49.268Z,95723
2018-04-22T06:38:18.172Z,95720
2018-04-22T06:43:46.334Z,95722
2018-04-22T06:49:19.158Z,95719
2018-04-22T06:54:49.734Z,95718
2018-04-22T07:00:18.900Z,95722
2018-04-22T07:05:47.045Z,95726
2018-04-22T07:11:15.231Z,95727
2018-04-22T07:16:43.387Z,95720
2018-04-22T07:22:11.532Z,95724
2018-04-22T07:27:43.901Z,95722
2018-04-22T07:33:12.061Z,95727
2018-04-22T07:38:40.215Z,95724
2018-04-22T07:44:13.289Z,95728
2018-04-22T07:49:41.460Z,95729
2018-04-22T07:55:10.638Z,95724
2018-04-22T08:00:39.989Z,95719
2018-04-22T08:06:08.181Z,95722
2018-04-22T08:11:39.270Z,95724
2018-04-22T08:17:07.445Z,95714
2018-04-22T08:22:36.578Z,95708
2018-04-22T08:28:05.515Z,95714
2018-04-22T08:33:33.812Z,95716
2018-04-22T08:39:01.985Z,95709
2018-04-22T08:44:30.185Z,95716
2018-04-22T08:49:58.499Z,95711
2018-04-22T08:55:26.741Z,95703
2018-04-22T09:00:54.888Z,95709
2018-04-22T09:06:26.105Z,95711
2018-04-22T09:11:54.256Z,95698
2018-04-22T09:17:22.489Z,95706
2018-04-22T09:22:50.772Z,95697
2018-04-22T09:28:18.938Z,95689
2018-04-22T09:33:47.090Z,95685
2018-04-22T09:39:16.049Z,95683
2018-04-22T09:44:44.202Z,95686
2018-04-22T09:50:12.347Z,95681
2018-04-22T09:55:40.550Z,95678
2018-04-22T10:01:08.727Z,95681
2018-04-22T10:06:36.888Z,95677
2018-04-22T10:12:05.106Z,95673
2018-04-22T10:17:34.998Z,95661
2018-04-22T10:23:04.174Z,95661
2018-04-22T10:28:32.537Z,95648
2018-04-22T10:34:01.519Z,95651
2018-04-22T10:39:30.721Z,95651
2018-04-22T10:44:58.899Z,95644
2018-04-22T10:50:27.277Z,95639
2018-04-22T10:55:55.426Z,95633
2018-04-22T11:01:24.489Z,95627
2018-04-22T11:06:52.705Z,95629
2018-04-22T11:12:20.867Z,95625
2018-04-22T11:17:49.041Z,95621
2018-04-22T11:23:18.273Z,95620
2018-04-22T11:28:58.109Z,95613
2018-04-22T11:34:28.351Z,95615
2018-04-22T11:39:57.296Z,95609
2018-04-22T11:45:25.488Z,95607
2018-04-22T11:50:53.638Z,95608
2018-04-22T11:56:21.794Z,95604
2018-04-22T12:01:49.941Z,95607
2018-04-22T12:07:18.158Z,95599
2018-04-22T12:12:46.315Z,95593
2018-04-22T12:18:15.536Z,95578
2018-04-22T12:23:44.455Z,95580
2018-04-22T12:29:12.622Z,95584
2018-04-22T12:34:41.751Z,95581
2018-04-22T12:40:11.680Z,95578
2018-04-22T12:45:39.956Z,95583
2018-04-22T12:51:08.176Z,95588
2018-04-22T12:56:36.330Z,95582
2018-04-22T13:02:04.533Z,95577
2018-04-22T13:07:32.738Z,95581
2018-04-22T13:13:01.928Z,95573
2018-04-22T13:18:30.128Z,95560
2018-04-22T13:23:58.324Z,95551
2018-04-22T13:29:26.556Z,95552
2018-04-22T13:34:55.033Z,95559
2018-04-22T13:40:24.044Z,95551
2018-04-22T13:45:52.238Z,95543
2018-04-22T13:51:21.349Z,95529
2018-04-22T13:56:50.818Z,95522
2018-04-22T14:02:18.968Z,95523
2018-04-22T14:07:47.529Z,95519
2018-04-22T14:13:16.026Z,95519
2018-04-22T14:18:44.188Z,95502
2018-04-22T14:24:13.101Z,95490
2018-04-22T14:29:41.825Z,95481
2018-04-22T14:35:10.057Z,95422
2018-04-22T14:40:38.267Z,95402
2018-04-22T14:46:14.129Z,95394
2018-04-22T14:51:42.279Z,95395
2018-04-22T14:57:10.450Z,95391
2018-04-22T15:02:39.373Z,95459
2018-04-22T15:08:07.724Z,95453
2018-04-22T15:13:37.049Z,95431
2018-04-22T15:19:06.004Z,95440
2018-04-22T15:24:37.905Z,95433
2018-04-22T15:30:07.210Z,95404
2018-04-22T15:35:36.590Z,95436
2018-04-22T15:41:05.594Z,95414
2018-04-22T15:46:34.752Z,95441
2018-04-22T15:52:03.106Z,95443
2018-04-22T15:57:32.119Z,95439
2018-04-22T16:03:00.325Z,95433
2018-04-22T16:08:28.531Z,95433
2018-04-22T16:13:57.894Z,95434
2018-04-22T16:19:26.186Z,95436
2018-04-22T16:24:54.357Z,95433
2018-04-22T16:30:23.654Z,95434
2018-04-22T16:35:52.722Z,95436
2018-04-22T16:41:21.197Z,95433
2018-04-22T16:46:51.385Z,95430
2018-04-22T16:52:19.532Z,95429
2018-04-22T16:57:49.664Z,95423
2018-04-22T17:03:17.847Z,95428
2018-04-22T17:08:46.002Z,95432
2018-04-22T17:14:16.310Z,95435
2018-04-22T17:19:46.493Z,95443
2018-04-22T17:25:20.773Z,95448
2018-04-22T17:30:49.000Z,95454
2018-04-22T17:36:17.206Z,95461
2018-04-22T17:41:47.241Z,95452
2018-04-22T17:47:16.428Z,95465
2018-04-22T17:52:45.399Z,95465
2018-04-22T17:58:13.548Z,95468
2018-04-22T18:03:41.705Z,95481
2018-04-22T18:09:11.355Z,95483
2018-04-22T18:14:39.629Z,95490
2018-04-22T18:20:09.022Z,95493
2018-04-22T18:25:37.267Z,95492
2018-04-22T18:31:05.548Z,95492
2018-04-22T18:36:33.699Z,95499
2018-04-22T18:42:02.665Z,95498
2018-04-22T18:47:30.822Z,95512
2018-04-22T18:52:59.266Z,95520
2018-04-22T18:58:27.467Z,95519
2018-04-22T19:03:55.620Z,95522
2018-04-22T19:09:24.558Z,95527
2018-04-22T19:14:56.393Z,95530
2018-04-22T19:20:24.536Z,95535
2018-04-22T19:25:52.697Z,95539
2018-04-22T19:31:21.634Z,95538
2018-04-22T19:36:49.924Z,95539
2018-04-22T19:42:19.058Z,95539
2018-04-22T19:47:47.237Z,95551
2018-04-22T19:53:16.189Z,95549
2018-04-22T19:58:44.952Z,95551
2018-04-22T20:04:13.160Z,95563
2018-04-22T20:09:41.477Z,95552
2018-04-22T20:15:09.651Z,95556
2018-04-22T20:20:42.390Z,95561
2018-04-22T20:26:11.336Z,95554
2018-04-22T20:31:41.195Z,95557
2018-04-22T20:37:10.104Z,95563
2018-04-22T20:42:38.263Z,95555
2018-04-22T20:48:07.208Z,95552
2018-04-22T20:53:35.370Z,95556
2018-04-22T20:59:04.594Z,95559
2018-04-22T21:04:32.771Z,95552
2018-04-22T21:10:01.757Z,95549
2018-04-22T21:15:29.934Z,95551
2018-04-22T21:20:59.102Z,95562
2018-04-22T21:26:28.165Z,95555
2018-04-22T21:31:56.352Z,95551
2018-04-22T21:37:25.619Z,95552
2018-04-22T21:42:53.790Z,95552
2018-04-22T21:48:28.389Z,95552
2018-04-22T21:53:57.326Z,95556
2018-04-22T21:59:26.242Z,95556
2018-04-22T22:04:54.385Z,95564
2018-04-22T22:10:23.324Z,95562
2018-04-22T22:15:53.904Z,95573
2018-04-22T22:21:22.830Z,95570
2018-04-22T22:26:51.738Z,95569
2018-04-22T22:32:28.247Z,95572
2018-04-22T22:37:56.402Z,95583
2018-04-22T22:43:24.552Z,95579
2018-04-22T22:48:52.699Z,95579
2018-04-22T22:54:20.843Z,95585
2018-04-22T22:59:48.988Z,95584
2018-04-22T23:05:17.948Z,95579
2018-04-22T23:10:46.093Z,95575
2018-04-22T23:16:14.256Z,95585
2018-04-22T23:21:42.399Z,95587
2018-04-22T23:27:10.547Z,95573
2018-04-22T23:32:38.721Z,95579
2018-04-22T23:38:07.626Z,95581
2018-04-22T23:43:35.790Z,95582
2018-04-22T23:49:04.728Z,95581
2018-04-22T23:54:32.931Z,95581
